Cortez, CO

6:11 PM MST on February 27, 2015 (GMT -0700)
Cortez Municipal | Change Station
CLOSE
Current Station
Airport
Location: Cortez,
Elevation: 5915 ft
Nearby Weather Stations
Active Advisory: Winter Weather Advisory Active Notice: Local Storm Report

Elev 5915 ft 37.31 °N, 108.63 °W | Updated 18 minutes ago

Snow
Snow
32 °F
Feels Like 32 °F
N
0
Wind Variable Wind from North

Today
High -- | Low -- °F
--% Chance of Precip.
Yesterday
High -- | Low -- °F
Precip. -- in
6:49 AM 6:06 PM
Waxing Gibbous, 73% visible
Pressure 29.77 in
Visibility 4.0 miles
Clouds Scattered Clouds 3800 ft
Overcast 6500 ft
Dew Point 30 °F
Humidity 92%
Rainfall 0.00 in
Snow Depth Not available.
UV 0 out of 12
Pollen 2.40 out of 12
Air Quality Not available.
Flu Activity Not available.
METAR KCEZ 280053Z AUTO 00000KT 4SM -SN BR SCT038 OVC065 00/M01 A2976 RMK AO2 SNEMMB28 SLP080 P0000 T00001011 $

More Conditions Fewer Conditions

Pressure 29.77 in
Visibility 4.0 miles
Clouds Scattered Clouds 3800 ft
Overcast 6500 ft
Dew Point 30 °F
Humidity 92%
Rainfall 0.00 in
Snow Depth Not available.
UV 0 out of 12
Pollen 2.40 out of 12
Air Quality Not available.
Flu Activity Not available.
METAR KCEZ 280053Z AUTO 00000KT 4SM -SN BR SCT038 OVC065 00/M01 A2976 RMK AO2 SNEMMB28 SLP080 P0000 T00001011 $

More Conditions Fewer Conditions

10-Day Weather Forecast

Almanac

Astronomy

Feb. 27, 2015 Rise Set
Actual Time
Civil Twilight
Nautical Twilight
Astronomical Twilight
Moon
Length of Visible Light
Length of Day
Tomorrow will be .
, % of the Moon is Illuminated

Today's Extremes

State Highs State Lows

Community

WunderPhotos

Upload Photos

1,800,914 photos uploaded!

WunderBlogs® & News

Nearby

Air Quality

  Air Quality AQ Index Pollutant
Not available.

Snow Depth

Station Depth Elevation

Earthquake Activity

City Distance Mag. Time & Date
Minimum magnitude displayed is 2.5.

Coastal Water Temperatures

Place Temperature

Nearby Weather Stations

Winter Weather Advisory
Statement as of 3:10 PM MST on February 27, 2015

... Winter Weather Advisory remains in effect from 6 PM this
evening to 8 PM MST Monday above 6000 feet...

* locations include the cities of... Cortez... Dove Creek... Mancos.

* Timing... snow will begin to accumulate this evening and
continue through Monday evening.

* Snow accumulation... 2 to 4 inches are expected each night... for
a storm total of 8 to 16 inches.

* Snow levels... may see rain or a rain snow mix in the
afternoons especially below 6000 feet.

* Winds... southwest 10 to 20 mph possible Saturday afternoon and
evening.

* Visibility... restricted at times in heavy snow.

* Impacts... travel is expected to be difficult this weekend into
Tuesday.

Precautionary/preparedness actions...

A Winter Weather Advisory means that periods of snow and/or
blowing snow will cause travel difficulties. Be prepared for
slippery roads and limited visibilities... and use caution while
driving.